Airfield :
LOGIN :

Register | Disclaimer

   EN    FR    IT 

 










Legend :    VFR   Marginal VFR   IFR   Intensive IFR   Very Intensive IFR
Visi :
Ceiling :
>= 8 km
>= 3000ft
5 to 8 km
1000 to 3000 ft
1500m to 5 km
500 to 1000 ft
800 to 1500m
200 to 500 ft
< 800m
< 200 ft
Symbols :   Thunderstorms  Fog  Heavy snow  Heavy precipitations  Wind > 20 kt
SIGMETs :     Misc.  Thunderstorms  Icing  Turbulence  Mountain Waves  Volcanic Ashes







- Airport Elevation : 600 ft
- IATA code : VIE


LOWW - Vienna Schwechat

CURRENT METAR :
  • 112120Z 36009KT 9999 -RA FEW004 BKN012 01/M00 Q1016 TEMPO -SNRA

EXPIRED METARs :
  • 112050Z 31013KT 9999 -RA FEW013 BKN016 BKN022 03/00 Q1016 NOSIG
  • 112020Z 29016KT 9999 -RA FEW013 BKN016 BKN022 03/00 Q1015 NOSIG
  • 111950Z 29019G29KT 9999 -RA FEW013 BKN018 BKN022 03/00 Q1015 NOSIG
  • 111920Z 29018KT 9999 -RA FEW013 BKN018 BKN024 03/M00 Q1015 NOSIG
  • 111850Z 28017KT 9999 -RA FEW013 BKN018 BKN024 03/00 Q1015 NOSIG

TAF AMD TAF LOWW
Valid from the 11 at 21:00 until the 13 at 03:00 UTC


112115Z 1121/1303 31013KT 9999 -RASN FEW013 BKN020 TX03/1211Z TNM03/1303Z
TEMPO 1121/1202 35010KT 7000 -SNRA BKN013
TEMPO 1202/1210 31015KT 4000 -SN FEW007 BKN010
FM121500 35005KT 9999 FEW008 BKN015
BECMG 1222/1224 7000 BKN007
TEMPO 1301/1303 4000 BR FEW003 BKN004
No reported NOTAMs for that airfield.



MET'MAP, your aeronautical weather chart ! - Copyright ORBIFLY December 2007 - Disclaimer

ORBIFLY MET'MAP TEAM :

Programming & Development : Alexandra Zaïnal
Concept & Development : Baudouin d'Aumeries
Co-Development & Prog : Marc-Olivier Méhu
Technical & hardware support : Manuel Goepfert

Contact : metmap@orbifly.com




SOURCES & CREDITS :

   NOAA